sensor_id;sensor_type;location;lat;lon;timestamp;pressure;altitude;pressure_sealevel;temperature
22322;BMP180;11328;53.928;18.522;2022-09-29T00:01:04;98594.00;;;11.80
22322;BMP180;11328;53.928;18.522;2022-09-29T00:03:32;98600.00;;;11.70
22322;BMP180;11328;53.928;18.522;2022-09-29T00:05:59;98596.00;;;11.60
22322;BMP180;11328;53.928;18.522;2022-09-29T00:08:29;98599.00;;;11.60
22322;BMP180;11328;53.928;18.522;2022-09-29T00:10:56;98599.00;;;11.70
22322;BMP180;11328;53.928;18.522;2022-09-29T00:13:23;98589.00;;;11.80
22322;BMP180;11328;53.928;18.522;2022-09-29T00:15:59;98604.00;;;11.90
22322;BMP180;11328;53.928;18.522;2022-09-29T00:18:28;98601.00;;;11.90
22322;BMP180;11328;53.928;18.522;2022-09-29T00:21:00;98595.00;;;11.80
22322;BMP180;11328;53.928;18.522;2022-09-29T00:23:29;98590.00;;;11.60
22322;BMP180;11328;53.928;18.522;2022-09-29T00:26:19;98591.00;;;11.50
22322;BMP180;11328;53.928;18.522;2022-09-29T00:28:52;98596.00;;;11.50
22322;BMP180;11328;53.928;18.522;2022-09-29T00:31:27;98598.00;;;11.50
22322;BMP180;11328;53.928;18.522;2022-09-29T00:33:55;98603.00;;;11.50
22322;BMP180;11328;53.928;18.522;2022-09-29T00:36:23;98600.00;;;11.50
22322;BMP180;11328;53.928;18.522;2022-09-29T00:38:51;98599.00;;;11.30
22322;BMP180;11328;53.928;18.522;2022-09-29T00:41:32;98600.00;;;11.20
22322;BMP180;11328;53.928;18.522;2022-09-29T00:46:54;98596.00;;;11.30
22322;BMP180;11328;53.928;18.522;2022-09-29T00:50:00;98593.00;;;11.20
22322;BMP180;11328;53.928;18.522;2022-09-29T00:52:40;98602.00;;;11.10
22322;BMP180;11328;53.928;18.522;2022-09-29T00:55:20;98602.00;;;11.20
22322;BMP180;11328;53.928;18.522;2022-09-29T00:57:59;98600.00;;;11.20
22322;BMP180;11328;53.928;18.522;2022-09-29T01:00:28;98602.00;;;11.30
22322;BMP180;11328;53.928;18.522;2022-09-29T01:03:04;98610.00;;;11.40
22322;BMP180;11328;53.928;18.522;2022-09-29T01:05:43;98604.00;;;11.40
22322;BMP180;11328;53.928;18.522;2022-09-29T01:08:21;98602.00;;;11.50
22322;BMP180;11328;53.928;18.522;2022-09-29T01:10:51;98597.00;;;11.40
22322;BMP180;11328;53.928;18.522;2022-09-29T01:13:19;98601.00;;;11.40
22322;BMP180;11328;53.928;18.522;2022-09-29T01:15:46;98601.00;;;11.40
22322;BMP180;11328;53.928;18.522;2022-09-29T01:18:13;98593.00;;;11.50
22322;BMP180;11328;53.928;18.522;2022-09-29T01:35:39;98614.00;;;12.10
22322;BMP180;11328;53.928;18.522;2022-09-29T01:41:15;98617.00;;;12.20
22322;BMP180;11328;53.928;18.522;2022-09-29T01:44:13;98617.00;;;12.20
22322;BMP180;11328;53.928;18.522;2022-09-29T01:47:12;98621.00;;;12.30
22322;BMP180;11328;53.928;18.522;2022-09-29T01:49:45;98619.00;;;12.40
22322;BMP180;11328;53.928;18.522;2022-09-29T01:52:21;98612.00;;;12.50
22322;BMP180;11328;53.928;18.522;2022-09-29T01:54:57;98613.00;;;12.50
22322;BMP180;11328;53.928;18.522;2022-09-29T01:58:09;98616.00;;;12.70
22322;BMP180;11328;53.928;18.522;2022-09-29T02:00:47;98624.00;;;12.70
22322;BMP180;11328;53.928;18.522;2022-09-29T02:06:12;98626.00;;;12.70
22322;BMP180;11328;53.928;18.522;2022-09-29T02:08:54;98632.00;;;12.70
22322;BMP180;11328;53.928;18.522;2022-09-29T02:11:21;98633.00;;;12.80
22322;BMP180;11328;53.928;18.522;2022-09-29T02:14:06;98633.00;;;12.70
22322;BMP180;11328;53.928;18.522;2022-09-29T02:16:42;98629.00;;;12.70
22322;BMP180;11328;53.928;18.522;2022-09-29T02:19:22;98628.00;;;12.80
22322;BMP180;11328;53.928;18.522;2022-09-29T02:21:50;98633.00;;;12.80
22322;BMP180;11328;53.928;18.522;2022-09-29T02:24:23;98610.00;;;12.80
22322;BMP180;11328;53.928;18.522;2022-09-29T02:26:51;98640.00;;;12.70
22322;BMP180;11328;53.928;18.522;2022-09-29T02:29:19;98631.00;;;12.70
22322;BMP180;11328;53.928;18.522;2022-09-29T02:31:47;98633.00;;;12.70
22322;BMP180;11328;53.928;18.522;2022-09-29T02:34:20;98637.00;;;12.70
22322;BMP180;11328;53.928;18.522;2022-09-29T02:46:16;98653.00;;;12.40
22322;BMP180;11328;53.928;18.522;2022-09-29T02:49:15;98651.00;;;12.30
22322;BMP180;11328;53.928;18.522;2022-09-29T02:51:54;98647.00;;;12.10
22322;BMP180;11328;53.928;18.522;2022-09-29T02:54:59;98654.00;;;12.10
22322;BMP180;11328;53.928;18.522;2022-09-29T02:57:49;98659.00;;;12.10
22322;BMP180;11328;53.928;18.522;2022-09-29T03:00:19;98634.00;;;12.10
22322;BMP180;11328;53.928;18.522;2022-09-29T03:02:47;98658.00;;;12.00
22322;BMP180;11328;53.928;18.522;2022-09-29T03:05:19;98644.00;;;12.00
22322;BMP180;11328;53.928;18.522;2022-09-29T03:07:48;98651.00;;;11.90
22322;BMP180;11328;53.928;18.522;2022-09-29T03:10:16;98658.00;;;11.80
22322;BMP180;11328;53.928;18.522;2022-09-29T03:12:44;98663.00;;;11.70
22322;BMP180;11328;53.928;18.522;2022-09-29T03:15:12;98667.00;;;11.60
22322;BMP180;11328;53.928;18.522;2022-09-29T03:17:40;98666.00;;;11.40
22322;BMP180;11328;53.928;18.522;2022-09-29T03:20:08;98664.00;;;11.20
22322;BMP180;11328;53.928;18.522;2022-09-29T03:22:35;98665.00;;;11.00
22322;BMP180;11328;53.928;18.522;2022-09-29T03:25:04;98661.00;;;10.90
22322;BMP180;11328;53.928;18.522;2022-09-29T03:27:32;98665.00;;;10.80
22322;BMP180;11328;53.928;18.522;2022-09-29T03:29:59;98654.00;;;10.60
22322;BMP180;11328;53.928;18.522;2022-09-29T03:32:26;98654.00;;;10.50
22322;BMP180;11328;53.928;18.522;2022-09-29T03:34:53;98657.00;;;10.40
22322;BMP180;11328;53.928;18.522;2022-09-29T03:37:20;98660.00;;;10.40
22322;BMP180;11328;53.928;18.522;2022-09-29T03:39:47;98641.00;;;10.50
22322;BMP180;11328;53.928;18.522;2022-09-29T03:42:14;98661.00;;;10.50
22322;BMP180;11328;53.928;18.522;2022-09-29T03:44:42;98645.00;;;10.50
22322;BMP180;11328;53.928;18.522;2022-09-29T03:47:09;98671.00;;;10.50
22322;BMP180;11328;53.928;18.522;2022-09-29T03:49:36;98665.00;;;10.40
22322;BMP180;11328;53.928;18.522;2022-09-29T03:52:03;98672.00;;;10.20
22322;BMP180;11328;53.928;18.522;2022-09-29T03:54:36;98671.00;;;10.10
22322;BMP180;11328;53.928;18.522;2022-09-29T03:57:14;98678.00;;;10.00
22322;BMP180;11328;53.928;18.522;2022-09-29T03:59:51;98680.00;;;9.90
22322;BMP180;11328;53.928;18.522;2022-09-29T04:02:37;98673.00;;;10.00
22322;BMP180;11328;53.928;18.522;2022-09-29T04:05:14;98682.00;;;10.00
22322;BMP180;11328;53.928;18.522;2022-09-29T04:07:57;98683.00;;;10.00
22322;BMP180;11328;53.928;18.522;2022-09-29T04:10:37;98690.00;;;10.00
22322;BMP180;11328;53.928;18.522;2022-09-29T04:13:10;98681.00;;;10.00
22322;BMP180;11328;53.928;18.522;2022-09-29T04:15:48;98684.00;;;10.00
22322;BMP180;11328;53.928;18.522;2022-09-29T04:18:21;98686.00;;;10.10
22322;BMP180;11328;53.928;18.522;2022-09-29T04:21:13;98682.00;;;10.00
22322;BMP180;11328;53.928;18.522;2022-09-29T04:23:45;98694.00;;;10.00
22322;BMP180;11328;53.928;18.522;2022-09-29T04:26:18;98690.00;;;10.10
22322;BMP180;11328;53.928;18.522;2022-09-29T04:28:55;98692.00;;;10.10
22322;BMP180;11328;53.928;18.522;2022-09-29T04:31:30;98683.00;;;10.20
22322;BMP180;11328;53.928;18.522;2022-09-29T04:34:03;98698.00;;;10.30
22322;BMP180;11328;53.928;18.522;2022-09-29T04:36:50;98697.00;;;10.20
22322;BMP180;11328;53.928;18.522;2022-09-29T04:39:27;98698.00;;;10.20
22322;BMP180;11328;53.928;18.522;2022-09-29T04:42:07;98698.00;;;9.90
22322;BMP180;11328;53.928;18.522;2022-09-29T04:44:54;98697.00;;;9.90
22322;BMP180;11328;53.928;18.522;2022-09-29T04:47:29;98701.00;;;9.90
22322;BMP180;11328;53.928;18.522;2022-09-29T04:50:05;98703.00;;;10.10
22322;BMP180;11328;53.928;18.522;2022-09-29T04:52:45;98706.00;;;10.00
22322;BMP180;11328;53.928;18.522;2022-09-29T04:55:22;98710.00;;;10.00
22322;BMP180;11328;53.928;18.522;2022-09-29T04:57:58;98699.00;;;9.90
22322;BMP180;11328;53.928;18.522;2022-09-29T05:00:31;98695.00;;;10.00
22322;BMP180;11328;53.928;18.522;2022-09-29T05:03:03;98707.00;;;9.90
22322;BMP180;11328;53.928;18.522;2022-09-29T05:05:39;98706.00;;;9.90
22322;BMP180;11328;53.928;18.522;2022-09-29T05:08:17;98710.00;;;10.00
22322;BMP180;11328;53.928;18.522;2022-09-29T05:10:52;98716.00;;;10.10
22322;BMP180;11328;53.928;18.522;2022-09-29T05:13:22;98720.00;;;10.20
22322;BMP180;11328;53.928;18.522;2022-09-29T05:16:03;98708.00;;;10.20
22322;BMP180;11328;53.928;18.522;2022-09-29T05:18:40;98725.00;;;10.20
22322;BMP180;11328;53.928;18.522;2022-09-29T05:21:10;98715.00;;;10.20
22322;BMP180;11328;53.928;18.522;2022-09-29T05:23:56;98723.00;;;10.30
22322;BMP180;11328;53.928;18.522;2022-09-29T05:26:25;98728.00;;;10.30
22322;BMP180;11328;53.928;18.522;2022-09-29T05:29:03;98726.00;;;10.30
22322;BMP180;11328;53.928;18.522;2022-09-29T05:31:34;98727.00;;;10.30
22322;BMP180;11328;53.928;18.522;2022-09-29T05:34:09;98733.00;;;10.50
22322;BMP180;11328;53.928;18.522;2022-09-29T05:36:44;98727.00;;;10.60
22322;BMP180;11328;53.928;18.522;2022-09-29T05:39:17;98730.00;;;10.60
22322;BMP180;11328;53.928;18.522;2022-09-29T05:41:50;98729.00;;;10.70
22322;BMP180;11328;53.928;18.522;2022-09-29T05:44:28;98739.00;;;10.70
22322;BMP180;11328;53.928;18.522;2022-09-29T05:46:55;98749.00;;;10.70
22322;BMP180;11328;53.928;18.522;2022-09-29T05:49:33;98741.00;;;10.70
22322;BMP180;11328;53.928;18.522;2022-09-29T05:52:09;98743.00;;;10.70
22322;BMP180;11328;53.928;18.522;2022-09-29T05:54:39;98749.00;;;10.80
22322;BMP180;11328;53.928;18.522;2022-09-29T05:57:17;98752.00;;;10.80
22322;BMP180;11328;53.928;18.522;2022-09-29T05:59:50;98764.00;;;10.80
22322;BMP180;11328;53.928;18.522;2022-09-29T06:02:21;98766.00;;;10.80
22322;BMP180;11328;53.928;18.522;2022-09-29T06:04:57;98766.00;;;10.80
22322;BMP180;11328;53.928;18.522;2022-09-29T06:07:30;98760.00;;;10.80
22322;BMP180;11328;53.928;18.522;2022-09-29T06:10:03;98774.00;;;10.90
22322;BMP180;11328;53.928;18.522;2022-09-29T06:12:35;98670.00;;;11.00
22322;BMP180;11328;53.928;18.522;2022-09-29T06:15:11;98759.00;;;11.10
22322;BMP180;11328;53.928;18.522;2022-09-29T06:17:46;98772.00;;;11.20
22322;BMP180;11328;53.928;18.522;2022-09-29T06:20:29;98773.00;;;11.20
22322;BMP180;11328;53.928;18.522;2022-09-29T06:23:01;98774.00;;;11.30
22322;BMP180;11328;53.928;18.522;2022-09-29T06:25:33;98780.00;;;11.20
22322;BMP180;11328;53.928;18.522;2022-09-29T06:28:05;98780.00;;;11.10
22322;BMP180;11328;53.928;18.522;2022-09-29T06:30:38;98779.00;;;11.20
22322;BMP180;11328;53.928;18.522;2022-09-29T06:33:13;98791.00;;;11.20
22322;BMP180;11328;53.928;18.522;2022-09-29T06:35:58;98791.00;;;11.20
22322;BMP180;11328;53.928;18.522;2022-09-29T06:38:52;98800.00;;;11.20
22322;BMP180;11328;53.928;18.522;2022-09-29T06:41:27;98787.00;;;11.20
22322;BMP180;11328;53.928;18.522;2022-09-29T06:44:01;98781.00;;;11.30
22322;BMP180;11328;53.928;18.522;2022-09-29T06:46:54;98803.00;;;11.20
22322;BMP180;11328;53.928;18.522;2022-09-29T06:49:29;98817.00;;;11.10
22322;BMP180;11328;53.928;18.522;2022-09-29T06:51:59;98811.00;;;11.00
22322;BMP180;11328;53.928;18.522;2022-09-29T06:54:48;98812.00;;;11.20
22322;BMP180;11328;53.928;18.522;2022-09-29T06:57:15;98776.00;;;11.20
22322;BMP180;11328;53.928;18.522;2022-09-29T06:59:50;98731.00;;;11.10
22322;BMP180;11328;53.928;18.522;2022-09-29T07:02:29;98808.00;;;11.00
22322;BMP180;11328;53.928;18.522;2022-09-29T07:05:00;98826.00;;;11.00
22322;BMP180;11328;53.928;18.522;2022-09-29T07:07:39;98821.00;;;11.10
22322;BMP180;11328;53.928;18.522;2022-09-29T07:10:12;98822.00;;;11.30
22322;BMP180;11328;53.928;18.522;2022-09-29T07:12:51;98822.00;;;11.30
22322;BMP180;11328;53.928;18.522;2022-09-29T07:15:27;98799.00;;;11.40
22322;BMP180;11328;53.928;18.522;2022-09-29T07:18:03;98825.00;;;11.30
22322;BMP180;11328;53.928;18.522;2022-09-29T07:20:45;98829.00;;;11.30
22322;BMP180;11328;53.928;18.522;2022-09-29T07:23:15;98831.00;;;11.30
22322;BMP180;11328;53.928;18.522;2022-09-29T07:26:00;98821.00;;;11.30
22322;BMP180;11328;53.928;18.522;2022-09-29T07:28:33;98827.00;;;11.30
22322;BMP180;11328;53.928;18.522;2022-09-29T07:31:20;98833.00;;;11.20
22322;BMP180;11328;53.928;18.522;2022-09-29T07:33:50;98835.00;;;11.40
22322;BMP180;11328;53.928;18.522;2022-09-29T07:36:34;98833.00;;;11.70
22322;BMP180;11328;53.928;18.522;2022-09-29T07:39:09;98838.00;;;12.40
22322;BMP180;11328;53.928;18.522;2022-09-29T07:41:39;98850.00;;;12.30
22322;BMP180;11328;53.928;18.522;2022-09-29T07:44:17;98862.00;;;12.50
22322;BMP180;11328;53.928;18.522;2022-09-29T07:46:51;98865.00;;;12.30
22322;BMP180;11328;53.928;18.522;2022-09-29T07:49:37;98864.00;;;12.40
22322;BMP180;11328;53.928;18.522;2022-09-29T07:52:05;98872.00;;;12.20
22322;BMP180;11328;53.928;18.522;2022-09-29T07:54:32;98872.00;;;12.20
22322;BMP180;11328;53.928;18.522;2022-09-29T07:56:59;98866.00;;;12.20
22322;BMP180;11328;53.928;18.522;2022-09-29T07:59:27;98891.00;;;12.20
22322;BMP180;11328;53.928;18.522;2022-09-29T08:01:54;98875.00;;;12.20
22322;BMP180;11328;53.928;18.522;2022-09-29T08:04:21;98882.00;;;12.40
22322;BMP180;11328;53.928;18.522;2022-09-29T08:06:48;98889.00;;;12.30
22322;BMP180;11328;53.928;18.522;2022-09-29T08:09:15;98893.00;;;12.30
22322;BMP180;11328;53.928;18.522;2022-09-29T08:11:43;98896.00;;;12.40
22322;BMP180;11328;53.928;18.522;2022-09-29T08:14:10;98891.00;;;12.50
22322;BMP180;11328;53.928;18.522;2022-09-29T08:16:38;98898.00;;;12.50
22322;BMP180;11328;53.928;18.522;2022-09-29T08:19:06;98873.00;;;12.60
22322;BMP180;11328;53.928;18.522;2022-09-29T08:21:33;98892.00;;;12.70
22322;BMP180;11328;53.928;18.522;2022-09-29T08:24:05;98908.00;;;12.90
22322;BMP180;11328;53.928;18.522;2022-09-29T08:26:35;98920.00;;;12.80
22322;BMP180;11328;53.928;18.522;2022-09-29T08:29:12;98915.00;;;12.70
22322;BMP180;11328;53.928;18.522;2022-09-29T08:31:42;98917.00;;;12.50
22322;BMP180;11328;53.928;18.522;2022-09-29T08:34:10;98887.00;;;13.00
22322;BMP180;11328;53.928;18.522;2022-09-29T08:36:37;98919.00;;;13.30
22322;BMP180;11328;53.928;18.522;2022-09-29T08:39:04;98927.00;;;13.30
22322;BMP180;11328;53.928;18.522;2022-09-29T08:41:57;98926.00;;;12.70
22322;BMP180;11328;53.928;18.522;2022-09-29T08:44:36;98930.00;;;12.50
22322;BMP180;11328;53.928;18.522;2022-09-29T08:47:32;98918.00;;;12.40
22322;BMP180;11328;53.928;18.522;2022-09-29T08:52:53;98910.00;;;13.10
22322;BMP180;11328;53.928;18.522;2022-09-29T08:55:44;98949.00;;;12.90
22322;BMP180;11328;53.928;18.522;2022-09-29T08:58:14;98938.00;;;12.90
22322;BMP180;11328;53.928;18.522;2022-09-29T09:01:15;98944.00;;;12.60
22322;BMP180;11328;53.928;18.522;2022-09-29T09:07:33;98942.00;;;12.70
22322;BMP180;11328;53.928;18.522;2022-09-29T09:25:33;98972.00;;;13.40
22322;BMP180;11328;53.928;18.522;2022-09-29T09:28:26;98968.00;;;13.20
22322;BMP180;11328;53.928;18.522;2022-09-29T09:34:06;98971.00;;;13.00
22322;BMP180;11328;53.928;18.522;2022-09-29T09:36:49;98973.00;;;13.10
22322;BMP180;11328;53.928;18.522;2022-09-29T09:40:06;98986.00;;;13.00
22322;BMP180;11328;53.928;18.522;2022-09-29T09:42:45;98980.00;;;12.90
22322;BMP180;11328;53.928;18.522;2022-09-29T09:45:33;98989.00;;;12.90
22322;BMP180;11328;53.928;18.522;2022-09-29T09:48:15;98993.00;;;12.90
22322;BMP180;11328;53.928;18.522;2022-09-29T09:50:49;98999.00;;;13.10
22322;BMP180;11328;53.928;18.522;2022-09-29T09:53:28;98996.00;;;13.00
22322;BMP180;11328;53.928;18.522;2022-09-29T09:56:27;99001.00;;;13.20
22322;BMP180;11328;53.928;18.522;2022-09-29T09:59:30;99010.00;;;13.20
22322;BMP180;11328;53.928;18.522;2022-09-29T10:02:00;99013.00;;;13.00
22322;BMP180;11328;53.928;18.522;2022-09-29T10:04:27;99012.00;;;12.90
22322;BMP180;11328;53.928;18.522;2022-09-29T10:06:55;99012.00;;;13.10
22322;BMP180;11328;53.928;18.522;2022-09-29T10:09:22;99008.00;;;13.10
22322;BMP180;11328;53.928;18.522;2022-09-29T10:11:50;99020.00;;;13.20
22322;BMP180;11328;53.928;18.522;2022-09-29T10:14:26;99026.00;;;13.20
22322;BMP180;11328;53.928;18.522;2022-09-29T10:17:07;99025.00;;;13.10
22322;BMP180;11328;53.928;18.522;2022-09-29T10:20:01;99022.00;;;13.20
22322;BMP180;11328;53.928;18.522;2022-09-29T10:22:30;99030.00;;;13.00
22322;BMP180;11328;53.928;18.522;2022-09-29T10:27:45;99040.00;;;13.20
22322;BMP180;11328;53.928;18.522;2022-09-29T10:30:23;99027.00;;;13.30
22322;BMP180;11328;53.928;18.522;2022-09-29T10:32:58;99041.00;;;13.30
22322;BMP180;11328;53.928;18.522;2022-09-29T10:35:36;99047.00;;;13.40
22322;BMP180;11328;53.928;18.522;2022-09-29T10:38:17;99030.00;;;13.40
22322;BMP180;11328;53.928;18.522;2022-09-29T10:41:17;99043.00;;;13.40
22322;BMP180;11328;53.928;18.522;2022-09-29T10:43:48;99050.00;;;13.30
22322;BMP180;11328;53.928;18.522;2022-09-29T10:46:54;99058.00;;;13.40
22322;BMP180;11328;53.928;18.522;2022-09-29T10:49:25;99060.00;;;13.30
22322;BMP180;11328;53.928;18.522;2022-09-29T10:52:05;99062.00;;;13.40
22322;BMP180;11328;53.928;18.522;2022-09-29T10:54:55;99055.00;;;13.30
22322;BMP180;11328;53.928;18.522;2022-09-29T10:57:30;99069.00;;;13.30
22322;BMP180;11328;53.928;18.522;2022-09-29T10:59:58;99072.00;;;13.40
22322;BMP180;11328;53.928;18.522;2022-09-29T11:02:35;99076.00;;;13.50
22322;BMP180;11328;53.928;18.522;2022-09-29T11:05:21;99078.00;;;13.60
22322;BMP180;11328;53.928;18.522;2022-09-29T11:07:51;99058.00;;;13.80
22322;BMP180;11328;53.928;18.522;2022-09-29T11:10:36;99083.00;;;13.60
22322;BMP180;11328;53.928;18.522;2022-09-29T11:16:02;99092.00;;;13.60
22322;BMP180;11328;53.928;18.522;2022-09-29T11:18:37;99096.00;;;13.80
22322;BMP180;11328;53.928;18.522;2022-09-29T11:21:30;99101.00;;;13.70
22322;BMP180;11328;53.928;18.522;2022-09-29T11:31:09;99112.00;;;14.70
22322;BMP180;11328;53.928;18.522;2022-09-29T11:33:47;99116.00;;;14.50
22322;BMP180;11328;53.928;18.522;2022-09-29T11:39:04;99112.00;;;14.80
22322;BMP180;11328;53.928;18.522;2022-09-29T11:42:12;99114.00;;;14.80
22322;BMP180;11328;53.928;18.522;2022-09-29T11:45:04;99121.00;;;14.80
22322;BMP180;11328;53.928;18.522;2022-09-29T11:56:31;99131.00;;;14.90
22322;BMP180;11328;53.928;18.522;2022-09-29T11:59:29;99129.00;;;14.80
22322;BMP180;11328;53.928;18.522;2022-09-29T12:05:53;99139.00;;;15.00
22322;BMP180;11328;53.928;18.522;2022-09-29T12:08:46;99144.00;;;15.20
22322;BMP180;11328;53.928;18.522;2022-09-29T12:11:41;99139.00;;;15.00
22322;BMP180;11328;53.928;18.522;2022-09-29T12:17:53;99149.00;;;14.90
22322;BMP180;11328;53.928;18.522;2022-09-29T12:20:31;99141.00;;;15.00
22322;BMP180;11328;53.928;18.522;2022-09-29T12:23:04;99137.00;;;15.10
22322;BMP180;11328;53.928;18.522;2022-09-29T12:26:15;99149.00;;;15.10
22322;BMP180;11328;53.928;18.522;2022-09-29T12:28:49;99151.00;;;15.10
22322;BMP180;11328;53.928;18.522;2022-09-29T12:31:31;99155.00;;;15.00
22322;BMP180;11328;53.928;18.522;2022-09-29T12:37:38;99158.00;;;14.70
22322;BMP180;11328;53.928;18.522;2022-09-29T12:40:37;99157.00;;;14.70
22322;BMP180;11328;53.928;18.522;2022-09-29T12:46:18;99152.00;;;14.60
22322;BMP180;11328;53.928;18.522;2022-09-29T12:51:43;99153.00;;;14.70
22322;BMP180;11328;53.928;18.522;2022-09-29T12:54:31;99152.00;;;14.80
22322;BMP180;11328;53.928;18.522;2022-09-29T12:57:13;99154.00;;;14.80
22322;BMP180;11328;53.928;18.522;2022-09-29T13:00:02;99154.00;;;14.70
22322;BMP180;11328;53.928;18.522;2022-09-29T13:06:05;99155.00;;;14.90
22322;BMP180;11328;53.928;18.522;2022-09-29T13:21:33;99169.00;;;14.80
22322;BMP180;11328;53.928;18.522;2022-09-29T13:27:35;99176.00;;;14.70
22322;BMP180;11328;53.928;18.522;2022-09-29T13:30:13;99180.00;;;14.60
22322;BMP180;11328;53.928;18.522;2022-09-29T13:32:48;99188.00;;;14.70
22322;BMP180;11328;53.928;18.522;2022-09-29T13:35:21;99184.00;;;14.80
22322;BMP180;11328;53.928;18.522;2022-09-29T13:38:01;99187.00;;;14.90
22322;BMP180;11328;53.928;18.522;2022-09-29T13:40:32;99187.00;;;15.00
22322;BMP180;11328;53.928;18.522;2022-09-29T13:43:03;99191.00;;;15.10
22322;BMP180;11328;53.928;18.522;2022-09-29T13:48:33;99198.00;;;14.90
22322;BMP180;11328;53.928;18.522;2022-09-29T13:51:40;99187.00;;;14.80
22322;BMP180;11328;53.928;18.522;2022-09-29T13:54:29;99198.00;;;14.80
22322;BMP180;11328;53.928;18.522;2022-09-29T14:03:04;99212.00;;;15.20
22322;BMP180;11328;53.928;18.522;2022-09-29T14:05:44;99195.00;;;15.30
22322;BMP180;11328;53.928;18.522;2022-09-29T14:08:21;99199.00;;;15.00
22322;BMP180;11328;53.928;18.522;2022-09-29T14:13:51;99205.00;;;15.00
22322;BMP180;11328;53.928;18.522;2022-09-29T14:16:37;99213.00;;;15.10
22322;BMP180;11328;53.928;18.522;2022-09-29T14:22:04;99213.00;;;15.30
22322;BMP180;11328;53.928;18.522;2022-09-29T14:24:52;99214.00;;;15.40
22322;BMP180;11328;53.928;18.522;2022-09-29T14:30:41;99224.00;;;15.50
22322;BMP180;11328;53.928;18.522;2022-09-29T14:33:26;99215.00;;;15.40
22322;BMP180;11328;53.928;18.522;2022-09-29T14:36:04;99223.00;;;15.50
22322;BMP180;11328;53.928;18.522;2022-09-29T14:38:56;99225.00;;;15.20
22322;BMP180;11328;53.928;18.522;2022-09-29T14:41:46;99233.00;;;15.50
22322;BMP180;11328;53.928;18.522;2022-09-29T14:44:28;99226.00;;;15.40
22322;BMP180;11328;53.928;18.522;2022-09-29T14:50:43;99242.00;;;15.50
22322;BMP180;11328;53.928;18.522;2022-09-29T14:53:48;99239.00;;;15.50
22322;BMP180;11328;53.928;18.522;2022-09-29T15:02:32;99245.00;;;15.50
22322;BMP180;11328;53.928;18.522;2022-09-29T15:05:27;99236.00;;;15.50
22322;BMP180;11328;53.928;18.522;2022-09-29T15:07:58;99253.00;;;15.50
22322;BMP180;11328;53.928;18.522;2022-09-29T15:10:37;99266.00;;;15.50
22322;BMP180;11328;53.928;18.522;2022-09-29T15:13:22;99268.00;;;15.60
22322;BMP180;11328;53.928;18.522;2022-09-29T15:15:55;99268.00;;;15.50
22322;BMP180;11328;53.928;18.522;2022-09-29T15:26:43;99281.00;;;15.50
22322;BMP180;11328;53.928;18.522;2022-09-29T15:29:16;99279.00;;;15.30
22322;BMP180;11328;53.928;18.522;2022-09-29T15:31:46;99272.00;;;15.30
22322;BMP180;11328;53.928;18.522;2022-09-29T15:34:23;99277.00;;;15.30
22322;BMP180;11328;53.928;18.522;2022-09-29T15:36:55;99285.00;;;15.30
22322;BMP180;11328;53.928;18.522;2022-09-29T15:42:13;99299.00;;;15.30
22322;BMP180;11328;53.928;18.522;2022-09-29T15:47:28;99308.00;;;15.40
22322;BMP180;11328;53.928;18.522;2022-09-29T15:50:23;99314.00;;;15.30
22322;BMP180;11328;53.928;18.522;2022-09-29T15:52:51;99306.00;;;15.20
22322;BMP180;11328;53.928;18.522;2022-09-29T15:55:22;99287.00;;;15.30
22322;BMP180;11328;53.928;18.522;2022-09-29T15:57:51;99314.00;;;15.20
22322;BMP180;11328;53.928;18.522;2022-09-29T16:00:40;99316.00;;;15.20
22322;BMP180;11328;53.928;18.522;2022-09-29T16:08:42;99318.00;;;15.10
22322;BMP180;11328;53.928;18.522;2022-09-29T16:11:37;99323.00;;;15.00
22322;BMP180;11328;53.928;18.522;2022-09-29T16:14:20;99324.00;;;15.00
22322;BMP180;11328;53.928;18.522;2022-09-29T16:16:50;99334.00;;;14.90
22322;BMP180;11328;53.928;18.522;2022-09-29T16:19:31;99334.00;;;14.80
22322;BMP180;11328;53.928;18.522;2022-09-29T16:22:04;99343.00;;;14.70
22322;BMP180;11328;53.928;18.522;2022-09-29T16:24:52;99331.00;;;14.80
22322;BMP180;11328;53.928;18.522;2022-09-29T16:27:44;99332.00;;;14.80
22322;BMP180;11328;53.928;18.522;2022-09-29T16:30:22;99314.00;;;14.90
22322;BMP180;11328;53.928;18.522;2022-09-29T16:33:27;99335.00;;;14.90
22322;BMP180;11328;53.928;18.522;2022-09-29T16:35:57;99338.00;;;15.00
22322;BMP180;11328;53.928;18.522;2022-09-29T16:38:32;99347.00;;;14.90
22322;BMP180;11328;53.928;18.522;2022-09-29T16:41:26;99342.00;;;14.60
22322;BMP180;11328;53.928;18.522;2022-09-29T16:44:33;99345.00;;;14.50
22322;BMP180;11328;53.928;18.522;2022-09-29T16:47:18;99350.00;;;14.40
22322;BMP180;11328;53.928;18.522;2022-09-29T16:49:57;99358.00;;;14.30
22322;BMP180;11328;53.928;18.522;2022-09-29T17:00:28;99355.00;;;13.80
22322;BMP180;11328;53.928;18.522;2022-09-29T17:02:56;99355.00;;;13.80
22322;BMP180;11328;53.928;18.522;2022-09-29T17:05:26;99354.00;;;13.70
22322;BMP180;11328;53.928;18.522;2022-09-29T17:08:04;99335.00;;;13.60
22322;BMP180;11328;53.928;18.522;2022-09-29T17:10:31;99362.00;;;13.50
22322;BMP180;11328;53.928;18.522;2022-09-29T17:13:00;99363.00;;;13.40
22322;BMP180;11328;53.928;18.522;2022-09-29T17:15:27;99368.00;;;13.30
22322;BMP180;11328;53.928;18.522;2022-09-29T17:17:56;99370.00;;;13.20
22322;BMP180;11328;53.928;18.522;2022-09-29T17:20:23;99374.00;;;13.10
22322;BMP180;11328;53.928;18.522;2022-09-29T17:22:56;99372.00;;;12.90
22322;BMP180;11328;53.928;18.522;2022-09-29T17:25:26;99371.00;;;12.80
22322;BMP180;11328;53.928;18.522;2022-09-29T17:27:53;99365.00;;;12.80
22322;BMP180;11328;53.928;18.522;2022-09-29T17:30:43;99374.00;;;12.70
22322;BMP180;11328;53.928;18.522;2022-09-29T17:33:14;99382.00;;;12.60
22322;BMP180;11328;53.928;18.522;2022-09-29T17:35:49;99388.00;;;12.60
22322;BMP180;11328;53.928;18.522;2022-09-29T17:38:23;99385.00;;;12.60
22322;BMP180;11328;53.928;18.522;2022-09-29T17:41:05;99387.00;;;12.50
22322;BMP180;11328;53.928;18.522;2022-09-29T17:43:36;99388.00;;;12.40
22322;BMP180;11328;53.928;18.522;2022-09-29T17:46:09;99391.00;;;12.30